Time;durP1;ratioP1;P1;durP2;ratioP2;P2;SDS_P1;SDS_P2;PMS_P1;PMS_P2;Temp;Humidity;BMP_temperature;BMP_pressure;BME280_temperature;BME280_humidity;BME280_pressure;Samples;Min_cycle;Max_cycle;Signal;HPM_P1;HPM_P2
2023/09/30 00:00:36;;;;;;;15.18;5.07;;;;;;;;;;4921030;29;20028;-59
2023/09/30 00:03:03;;;;;;;14.70;4.93;;;;;;;;;;4914388;29;20104;-58
2023/09/30 00:05:28;;;;;;;16.42;4.88;;;;;;;;;;4915629;29;20035;-58
2023/09/30 00:07:54;;;;;;;18.33;5.53;;;;;;;;;;4913495;29;20043;-58
2023/09/30 00:10:19;;;;;;;17.70;5.57;;;;;;;;;;4929969;29;20048;-57
2023/09/30 00:12:45;;;;;;;19.15;5.07;;;;;;;;;;4915907;29;20166;-56
2023/09/30 00:15:11;;;;;;;17.02;5.32;;;;;;;;;;4914410;29;20032;-58
2023/09/30 00:17:36;;;;;;;17.10;5.68;;;;;;;;;;4917985;29;20111;-57
2023/09/30 00:20:03;;;;;;;16.02;5.30;;;;;;;;;;4914637;29;20054;-56
2023/09/30 00:22:29;;;;;;;14.95;5.03;;;;;;;;;;4915204;29;20114;-58
2023/09/30 00:24:55;;;;;;;17.02;5.45;;;;;;;;;;4913378;29;20220;-59
2023/09/30 00:27:20;;;;;;;18.50;6.05;;;;;;;;;;4915090;29;20552;-58
2023/09/30 00:29:45;;;;;;;17.27;5.50;;;;;;;;;;4921472;29;20028;-58
2023/09/30 00:32:11;;;;;;;16.80;5.78;;;;;;;;;;4914075;29;20048;-59
2023/09/30 00:34:36;;;;;;;14.07;5.22;;;;;;;;;;4914383;29;20064;-59
2023/09/30 00:37:02;;;;;;;15.13;5.43;;;;;;;;;;4915909;29;20039;-58
2023/09/30 00:39:31;;;;;;;16.65;5.55;;;;;;;;;;4914035;29;20107;-58
2023/09/30 00:41:58;;;;;;;14.63;5.72;;;;;;;;;;4913421;29;20032;-56
2023/09/30 00:44:25;;;;;;;18.40;5.57;;;;;;;;;;4914643;29;20478;-58
2023/09/30 00:46:50;;;;;;;14.43;5.25;;;;;;;;;;4914332;29;20141;-57
2023/09/30 00:49:18;;;;;;;15.90;5.00;;;;;;;;;;4914815;29;20111;-58
2023/09/30 00:51:44;;;;;;;15.68;5.40;;;;;;;;;;4912135;29;20080;-59
2023/09/30 00:54:10;;;;;;;13.82;5.22;;;;;;;;;;4915650;29;20055;-58
2023/09/30 00:56:43;;;;;;;17.58;5.28;;;;;;;;;;4914726;29;20393;-57
2023/09/30 00:59:08;;;;;;;15.00;5.22;;;;;;;;;;4895775;29;20043;-58
2023/09/30 01:01:34;;;;;;;16.67;5.20;;;;;;;;;;4905220;29;20028;-58
2023/09/30 01:04:00;;;;;;;16.30;5.25;;;;;;;;;;4913357;29;20225;-56
2023/09/30 01:06:26;;;;;;;14.65;5.20;;;;;;;;;;4915482;29;20028;-59
2023/09/30 01:08:52;;;;;;;17.65;5.60;;;;;;;;;;4918065;29;20044;-56
2023/09/30 01:11:17;;;;;;;16.08;5.70;;;;;;;;;;4928636;29;20677;-58
2023/09/30 01:13:44;;;;;;;15.20;5.60;;;;;;;;;;4923503;29;20382;-59
2023/09/30 01:16:11;;;;;;;17.05;5.22;;;;;;;;;;4902993;29;20059;-58
2023/09/30 01:18:37;;;;;;;13.27;5.15;;;;;;;;;;4924022;29;20044;-60
2023/09/30 01:21:05;;;;;;;15.88;5.65;;;;;;;;;;4921121;29;20116;-58
2023/09/30 01:23:35;;;;;;;13.95;5.00;;;;;;;;;;4918475;29;20114;-58
2023/09/30 01:26:05;;;;;;;16.70;5.20;;;;;;;;;;4917622;29;20069;-58
2023/09/30 01:28:31;;;;;;;17.75;6.32;;;;;;;;;;4916135;29;20322;-59
2023/09/30 01:30:57;;;;;;;16.20;6.25;;;;;;;;;;4921944;29;20067;-58
2023/09/30 01:33:23;;;;;;;14.20;5.13;;;;;;;;;;4936480;29;20455;-57
2023/09/30 01:35:48;;;;;;;15.93;5.30;;;;;;;;;;4932317;29;20040;-58
2023/09/30 01:38:16;;;;;;;17.17;5.63;;;;;;;;;;4920700;29;20475;-58
2023/09/30 01:40:42;;;;;;;16.30;5.57;;;;;;;;;;4930465;29;20035;-57
2023/09/30 01:43:07;;;;;;;16.90;5.32;;;;;;;;;;4932995;29;20047;-59
2023/09/30 01:45:33;;;;;;;17.92;6.03;;;;;;;;;;4937111;29;20047;-59
2023/09/30 01:47:59;;;;;;;20.55;5.93;;;;;;;;;;4923881;29;20032;-58
2023/09/30 01:50:24;;;;;;;16.38;5.78;;;;;;;;;;4924278;29;20059;-58
2023/09/30 01:52:49;;;;;;;16.75;5.65;;;;;;;;;;4933295;29;20035;-59
2023/09/30 01:55:15;;;;;;;17.70;5.70;;;;;;;;;;4932992;29;20059;-59
2023/09/30 01:57:41;;;;;;;18.25;5.65;;;;;;;;;;4923515;29;20036;-58
2023/09/30 02:00:09;;;;;;;17.75;6.47;;;;;;;;;;4930394;29;20032;-58
2023/09/30 02:02:35;;;;;;;17.77;6.45;;;;;;;;;;4931701;29;20396;-58
2023/09/30 02:05:00;;;;;;;15.25;5.97;;;;;;;;;;4918371;29;20115;-58
2023/09/30 02:07:25;;;;;;;14.02;5.68;;;;;;;;;;4930268;29;20114;-58
2023/09/30 02:09:51;;;;;;;16.63;5.40;;;;;;;;;;4935589;29;20052;-58
2023/09/30 02:12:16;;;;;;;20.08;6.20;;;;;;;;;;4933055;29;20044;-58
2023/09/30 02:14:42;;;;;;;15.82;5.82;;;;;;;;;;4935388;29;20167;-57
2023/09/30 02:17:09;;;;;;;13.43;5.47;;;;;;;;;;4913525;29;20122;-57
2023/09/30 02:19:34;;;;;;;16.95;5.13;;;;;;;;;;4898748;29;20036;-57
2023/09/30 02:22:00;;;;;;;16.73;5.97;;;;;;;;;;4909326;29;20039;-57
2023/09/30 02:24:26;;;;;;;17.52;5.40;;;;;;;;;;4915780;29;20549;-59
2023/09/30 02:26:51;;;;;;;17.40;5.93;;;;;;;;;;4920632;29;20028;-57
2023/09/30 02:29:16;;;;;;;17.00;6.70;;;;;;;;;;4936637;29;20042;-57
2023/09/30 02:31:42;;;;;;;18.90;6.78;;;;;;;;;;4919116;29;20087;-57
2023/09/30 02:34:08;;;;;;;15.32;5.68;;;;;;;;;;4931874;29;20090;-57
2023/09/30 02:36:39;;;;;;;21.98;6.18;;;;;;;;;;4917081;29;20050;-59
2023/09/30 02:39:04;;;;;;;18.33;5.55;;;;;;;;;;4918672;29;20039;-56
2023/09/30 02:41:30;;;;;;;18.33;6.40;;;;;;;;;;4927516;29;20041;-58
2023/09/30 02:43:55;;;;;;;15.55;5.80;;;;;;;;;;4933231;29;20034;-58
2023/09/30 02:46:21;;;;;;;14.95;5.72;;;;;;;;;;4932660;29;20042;-57
2023/09/30 02:48:46;;;;;;;16.65;6.82;;;;;;;;;;4934798;29;20115;-57
2023/09/30 02:51:11;;;;;;;15.80;5.53;;;;;;;;;;4935430;29;20533;-57
2023/09/30 02:53:37;;;;;;;16.58;5.63;;;;;;;;;;4898884;29;20035;-57
2023/09/30 02:56:04;;;;;;;17.17;6.00;;;;;;;;;;4916781;29;20130;-54
2023/09/30 02:58:30;;;;;;;15.02;5.38;;;;;;;;;;4931118;29;20031;-58
2023/09/30 03:00:55;;;;;;;16.05;6.00;;;;;;;;;;4928281;29;20031;-57
2023/09/30 03:03:25;;;;;;;19.77;6.80;;;;;;;;;;4935035;29;20465;-57
2023/09/30 03:05:51;;;;;;;16.40;6.13;;;;;;;;;;4916021;29;20027;-59
2023/09/30 03:08:17;;;;;;;17.23;5.82;;;;;;;;;;4915545;29;20290;-57
2023/09/30 03:10:45;;;;;;;16.75;5.97;;;;;;;;;;4933732;29;20048;-57
2023/09/30 03:13:11;;;;;;;15.00;5.57;;;;;;;;;;4915919;29;20437;-56
2023/09/30 03:15:38;;;;;;;18.30;6.43;;;;;;;;;;4929080;29;20123;-57
2023/09/30 03:18:04;;;;;;;16.30;6.13;;;;;;;;;;4932769;29;20473;-57
2023/09/30 03:20:30;;;;;;;18.67;6.63;;;;;;;;;;4935290;29;20508;-58
2023/09/30 03:22:56;;;;;;;17.05;5.65;;;;;;;;;;4928166;29;20123;-56
2023/09/30 03:25:22;;;;;;;19.05;6.40;;;;;;;;;;4930827;29;20464;-58
2023/09/30 03:27:48;;;;;;;16.52;6.28;;;;;;;;;;4915127;29;20056;-59
2023/09/30 03:30:15;;;;;;;21.05;6.15;;;;;;;;;;4911668;29;20039;-56
2023/09/30 03:32:42;;;;;;;22.73;6.95;;;;;;;;;;4931872;29;20051;-54
2023/09/30 03:35:16;;;;;;;27.10;7.03;;;;;;;;;;4929194;29;20027;-58
2023/09/30 03:37:51;;;;;;;17.30;6.40;;;;;;;;;;4934112;29;20054;-57
2023/09/30 03:40:19;;;;;;;20.40;6.45;;;;;;;;;;4923312;29;20024;-58
2023/09/30 03:42:49;;;;;;;18.25;6.30;;;;;;;;;;4923329;29;20031;-58
2023/09/30 03:45:15;;;;;;;14.25;5.72;;;;;;;;;;4933490;29;20035;-58
2023/09/30 03:47:41;;;;;;;16.90;5.90;;;;;;;;;;4921927;29;20100;-58
2023/09/30 03:50:14;;;;;;;16.02;6.43;;;;;;;;;;4920813;29;20043;-57
2023/09/30 03:52:41;;;;;;;19.35;6.32;;;;;;;;;;4925137;29;20067;-55
2023/09/30 03:55:06;;;;;;;16.15;6.30;;;;;;;;;;4931602;29;20123;-57
2023/09/30 03:57:33;;;;;;;22.52;6.70;;;;;;;;;;4927719;29;20148;-57
2023/09/30 04:00:00;;;;;;;21.80;6.78;;;;;;;;;;4927756;29;20032;-58
2023/09/30 04:02:25;;;;;;;20.88;6.70;;;;;;;;;;4931230;29;20031;-58
2023/09/30 04:04:55;;;;;;;19.83;7.00;;;;;;;;;;4925293;29;20032;-59
2023/09/30 04:07:21;;;;;;;21.27;6.68;;;;;;;;;;4914829;29;20039;-57
2023/09/30 04:09:46;;;;;;;17.55;5.88;;;;;;;;;;4924015;29;20055;-59
2023/09/30 04:12:12;;;;;;;17.10;6.35;;;;;;;;;;4934038;29;20053;-58
2023/09/30 04:14:37;;;;;;;21.08;6.43;;;;;;;;;;4934621;29;20423;-58
2023/09/30 04:17:03;;;;;;;16.80;5.85;;;;;;;;;;4932095;29;20043;-58
2023/09/30 04:19:30;;;;;;;23.58;6.78;;;;;;;;;;4932460;29;20065;-58
2023/09/30 04:21:56;;;;;;;17.80;6.03;;;;;;;;;;4931772;29;20192;-58
2023/09/30 04:24:21;;;;;;;22.02;6.55;;;;;;;;;;4934754;29;20063;-58
2023/09/30 04:26:48;;;;;;;21.25;7.35;;;;;;;;;;4915496;29;20137;-57
2023/09/30 04:29:14;;;;;;;32.80;7.15;;;;;;;;;;4913565;29;20036;-57
2023/09/30 04:31:41;;;;;;;22.75;7.07;;;;;;;;;;4933937;29;20036;-58
2023/09/30 04:34:07;;;;;;;23.60;6.63;;;;;;;;;;4930833;29;20070;-58
2023/09/30 04:36:35;;;;;;;24.73;7.25;;;;;;;;;;4934476;29;20059;-58
2023/09/30 04:39:00;;;;;;;17.25;6.60;;;;;;;;;;4933643;29;20052;-59
2023/09/30 04:41:26;;;;;;;15.98;5.82;;;;;;;;;;4933082;29;20036;-57
2023/09/30 04:43:52;;;;;;;21.35;6.78;;;;;;;;;;4917420;29;20035;-57
2023/09/30 04:46:20;;;;;;;23.75;6.80;;;;;;;;;;4932903;29;20055;-57
2023/09/30 04:48:48;;;;;;;21.92;6.88;;;;;;;;;;4931837;29;20039;-58
2023/09/30 04:51:16;;;;;;;21.20;6.55;;;;;;;;;;4931901;29;20035;-59
2023/09/30 04:53:41;;;;;;;16.38;6.13;;;;;;;;;;4934350;29;20035;-58
2023/09/30 04:56:07;;;;;;;18.73;6.45;;;;;;;;;;4931021;29;20099;-58
2023/09/30 04:58:32;;;;;;;16.70;5.82;;;;;;;;;;4929187;29;20112;-57
2023/09/30 05:00:58;;;;;;;15.23;5.78;;;;;;;;;;4930220;29;20488;-59
2023/09/30 05:03:24;;;;;;;20.25;5.75;;;;;;;;;;4934380;29;20381;-58
2023/09/30 05:05:53;;;;;;;19.35;6.13;;;;;;;;;;4934458;29;20452;-57
2023/09/30 05:08:18;;;;;;;20.08;5.68;;;;;;;;;;4931819;29;20812;-56
2023/09/30 05:10:45;;;;;;;15.82;6.03;;;;;;;;;;4918712;29;20055;-58
2023/09/30 05:13:12;;;;;;;14.80;5.95;;;;;;;;;;4933118;29;20048;-58
2023/09/30 05:15:37;;;;;;;16.45;6.30;;;;;;;;;;4934100;29;20035;-57
2023/09/30 05:18:04;;;;;;;20.30;6.15;;;;;;;;;;4931740;29;20046;-57
2023/09/30 05:20:30;;;;;;;19.67;6.30;;;;;;;;;;4916737;29;20040;-57
2023/09/30 05:22:56;;;;;;;17.05;5.90;;;;;;;;;;4937129;29;20102;-57
2023/09/30 05:25:26;;;;;;;13.43;5.72;;;;;;;;;;4915395;29;20088;-58
2023/09/30 05:27:51;;;;;;;14.95;5.88;;;;;;;;;;4914522;29;20051;-56
2023/09/30 05:30:19;;;;;;;16.42;5.45;;;;;;;;;;4932833;29;20052;-56
2023/09/30 05:32:46;;;;;;;18.08;5.93;;;;;;;;;;4928377;29;20040;-58
2023/09/30 05:35:12;;;;;;;20.85;6.93;;;;;;;;;;4917376;29;20088;-59
2023/09/30 05:37:42;;;;;;;17.85;6.13;;;;;;;;;;4933716;29;20119;-57
2023/09/30 05:40:21;;;;;;;19.40;5.82;;;;;;;;;;4932940;29;20096;-56
2023/09/30 05:42:49;;;;;;;19.35;5.70;;;;;;;;;;4932791;29;20092;-57
2023/09/30 05:45:15;;;;;;;19.80;6.22;;;;;;;;;;4932477;29;20040;-58
2023/09/30 05:47:41;;;;;;;17.20;6.10;;;;;;;;;;4933339;29;20074;-58
2023/09/30 05:50:08;;;;;;;20.70;6.70;;;;;;;;;;4932840;29;20051;-59
2023/09/30 05:52:34;;;;;;;18.95;6.22;;;;;;;;;;4931252;29;20476;-58
2023/09/30 05:55:00;;;;;;;20.90;6.63;;;;;;;;;;4935890;29;20034;-59
2023/09/30 05:57:29;;;;;;;18.25;6.07;;;;;;;;;;4936992;29;20023;-58
2023/09/30 05:59:55;;;;;;;15.10;6.00;;;;;;;;;;4935339;29;20481;-58
2023/09/30 06:02:20;;;;;;;20.90;6.28;;;;;;;;;;4934382;29;20084;-58
2023/09/30 06:04:46;;;;;;;19.13;6.18;;;;;;;;;;4933314;29;20027;-57
2023/09/30 06:07:12;;;;;;;14.88;5.88;;;;;;;;;;4931607;29;20032;-58
2023/09/30 06:09:37;;;;;;;21.58;6.53;;;;;;;;;;4917781;29;20052;-57
2023/09/30 06:12:06;;;;;;;18.83;6.45;;;;;;;;;;4935921;29;20087;-58
2023/09/30 06:14:34;;;;;;;24.58;6.25;;;;;;;;;;4935686;29;20050;-57
2023/09/30 06:17:00;;;;;;;20.83;6.35;;;;;;;;;;4936318;29;20036;-59
2023/09/30 06:19:25;;;;;;;24.80;6.30;;;;;;;;;;4935587;29;20039;-58
2023/09/30 06:21:51;;;;;;;23.63;6.57;;;;;;;;;;4935727;29;20062;-59
2023/09/30 06:24:19;;;;;;;22.88;6.57;;;;;;;;;;4936011;29;20111;-58
2023/09/30 06:26:45;;;;;;;17.95;6.47;;;;;;;;;;4936461;29;20445;-57
2023/09/30 06:29:11;;;;;;;14.98;6.00;;;;;;;;;;4933413;29;20039;-58
2023/09/30 06:31:37;;;;;;;19.08;6.45;;;;;;;;;;4935471;29;20095;-58
2023/09/30 06:34:03;;;;;;;19.75;6.70;;;;;;;;;;4918235;29;20039;-59
2023/09/30 06:36:29;;;;;;;19.70;6.32;;;;;;;;;;4936266;29;20103;-57
2023/09/30 06:38:54;;;;;;;19.15;7.00;;;;;;;;;;4936215;29;20115;-57
2023/09/30 06:41:20;;;;;;;20.23;7.00;;;;;;;;;;4935494;29;20028;-59
2023/09/30 06:43:46;;;;;;;23.45;7.63;;;;;;;;;;4935160;29;20110;-59
2023/09/30 06:46:12;;;;;;;23.00;7.78;;;;;;;;;;4918148;29;20171;-59
2023/09/30 06:48:40;;;;;;;25.25;7.35;;;;;;;;;;4935835;29;20043;-58
2023/09/30 06:51:06;;;;;;;21.75;7.10;;;;;;;;;;4935149;29;20473;-60
2023/09/30 06:53:31;;;;;;;20.95;7.47;;;;;;;;;;4936219;29;20036;-59
2023/09/30 06:55:57;;;;;;;23.27;7.50;;;;;;;;;;4935926;29;20055;-59
2023/09/30 06:58:22;;;;;;;27.42;8.75;;;;;;;;;;4935011;29;20043;-58
2023/09/30 07:00:50;;;;;;;23.52;8.35;;;;;;;;;;4936038;29;20118;-58
2023/09/30 07:03:18;;;;;;;24.20;8.20;;;;;;;;;;4934697;29;20562;-58
2023/09/30 07:05:44;;;;;;;25.05;9.23;;;;;;;;;;4915563;29;20051;-59
2023/09/30 07:08:10;;;;;;;26.02;9.02;;;;;;;;;;4934869;29;20028;-58
2023/09/30 07:10:35;;;;;;;20.13;7.85;;;;;;;;;;4935857;29;20047;-59
2023/09/30 07:13:04;;;;;;;22.38;8.30;;;;;;;;;;4936622;29;20039;-59
2023/09/30 07:15:30;;;;;;;28.48;10.45;;;;;;;;;;4938144;29;20475;-59
2023/09/30 07:17:56;;;;;;;25.08;9.65;;;;;;;;;;4935851;29;20064;-58
2023/09/30 07:20:22;;;;;;;22.00;9.07;;;;;;;;;;4934755;29;20054;-60
2023/09/30 07:22:48;;;;;;;24.48;9.00;;;;;;;;;;4935626;29;20476;-60
2023/09/30 07:25:16;;;;;;;24.80;9.65;;;;;;;;;;4934562;29;20035;-58
2023/09/30 07:27:42;;;;;;;24.17;8.90;;;;;;;;;;4935192;29;20163;-58
2023/09/30 07:30:08;;;;;;;25.75;9.73;;;;;;;;;;4931602;29;20067;-60
2023/09/30 07:32:33;;;;;;;26.13;9.20;;;;;;;;;;4935216;29;20135;-59
2023/09/30 07:34:59;;;;;;;27.50;9.48;;;;;;;;;;4933980;29;20036;-59
2023/09/30 07:37:24;;;;;;;24.70;9.25;;;;;;;;;;4933601;29;20672;-60
2023/09/30 07:39:49;;;;;;;23.90;9.65;;;;;;;;;;4935259;29;20125;-60
2023/09/30 07:42:17;;;;;;;21.15;9.23;;;;;;;;;;4934142;29;20532;-60
2023/09/30 07:44:43;;;;;;;19.25;8.48;;;;;;;;;;4935333;29;20035;-60
2023/09/30 07:47:09;;;;;;;24.67;8.60;;;;;;;;;;4934303;29;20034;-60
2023/09/30 07:49:34;;;;;;;24.17;9.02;;;;;;;;;;4935185;29;20410;-60
2023/09/30 07:52:00;;;;;;;18.63;8.23;;;;;;;;;;4935286;29;20034;-59
2023/09/30 07:54:26;;;;;;;20.27;8.73;;;;;;;;;;4934381;29;20027;-58
2023/09/30 07:56:51;;;;;;;24.73;9.30;;;;;;;;;;4933283;29;20039;-59
2023/09/30 07:59:17;;;;;;;21.85;9.02;;;;;;;;;;4932870;29;20501;-59
2023/09/30 08:01:43;;;;;;;21.13;8.68;;;;;;;;;;4934233;29;20038;-59
2023/09/30 08:04:08;;;;;;;19.20;8.40;;;;;;;;;;4913567;29;20051;-60
2023/09/30 08:06:34;;;;;;;20.65;8.77;;;;;;;;;;4915276;29;20115;-59
2023/09/30 08:08:59;;;;;;;18.92;8.07;;;;;;;;;;4932646;29;20102;-59
2023/09/30 08:11:30;;;;;;;21.25;8.60;;;;;;;;;;4916830;29;20883;-59
2023/09/30 08:13:56;;;;;;;22.33;8.43;;;;;;;;;;4935099;29;20039;-59
2023/09/30 08:16:21;;;;;;;20.35;8.60;;;;;;;;;;4937377;29;20040;-60
2023/09/30 08:18:47;;;;;;;23.73;9.07;;;;;;;;;;4934241;29;20083;-60
2023/09/30 08:21:12;;;;;;;19.45;8.43;;;;;;;;;;4933547;29;20028;-60
2023/09/30 08:23:38;;;;;;;22.52;8.77;;;;;;;;;;4934712;29;20038;-60
2023/09/30 08:26:07;;;;;;;19.35;8.52;;;;;;;;;;4916577;29;20118;-60
2023/09/30 08:28:35;;;;;;;18.98;9.20;;;;;;;;;;4931507;29;20043;-60
2023/09/30 08:31:05;;;;;;;17.90;8.30;;;;;;;;;;4914097;29;20405;-60
2023/09/30 08:33:31;;;;;;;19.47;9.37;;;;;;;;;;4933494;29;20521;-60
2023/09/30 08:36:01;;;;;;;22.38;9.43;;;;;;;;;;4934599;29;20034;-58
2023/09/30 08:38:26;;;;;;;24.58;9.85;;;;;;;;;;4933539;29;20120;-59
2023/09/30 08:40:53;;;;;;;18.13;8.80;;;;;;;;;;4934124;29;20595;-60
2023/09/30 08:43:27;;;;;;;20.23;8.90;;;;;;;;;;4931561;29;20032;-59
2023/09/30 08:45:53;;;;;;;16.92;8.57;;;;;;;;;;4934481;29;20388;-59
2023/09/30 08:48:21;;;;;;;21.73;8.85;;;;;;;;;;4933464;29;20035;-59
2023/09/30 08:50:49;;;;;;;23.60;8.43;;;;;;;;;;4916875;29;20426;-59
2023/09/30 08:53:16;;;;;;;18.27;8.27;;;;;;;;;;4935025;29;20047;-59
2023/09/30 08:55:44;;;;;;;15.15;6.00;;;;;;;;;;4934562;29;20035;-58
2023/09/30 08:58:13;;;;;;;15.18;5.97;;;;;;;;;;4934174;29;20036;-59
2023/09/30 09:00:42;;;;;;;17.70;6.68;;;;;;;;;;4916502;29;20035;-58
2023/09/30 09:03:08;;;;;;;13.32;6.07;;;;;;;;;;4934739;29;20032;-58
2023/09/30 09:05:34;;;;;;;13.88;6.30;;;;;;;;;;4933666;29;20035;-58
2023/09/30 09:07:59;;;;;;;14.98;6.35;;;;;;;;;;4933999;29;20413;-57
2023/09/30 09:10:24;;;;;;;16.25;6.15;;;;;;;;;;4933184;29;20048;-60
2023/09/30 09:12:58;;;;;;;12.40;5.72;;;;;;;;;;4932269;29;20040;-59
2023/09/30 09:15:30;;;;;;;13.45;6.13;;;;;;;;;;4931772;29;20031;-60
2023/09/30 09:17:56;;;;;;;12.57;6.05;;;;;;;;;;4932441;29;20118;-60
2023/09/30 09:20:24;;;;;;;16.25;6.20;;;;;;;;;;4916212;29;20127;-59
2023/09/30 09:22:53;;;;;;;11.65;5.70;;;;;;;;;;4933799;29;20039;-58
2023/09/30 09:25:19;;;;;;;14.55;4.88;;;;;;;;;;4931939;29;20032;-61
2023/09/30 09:27:45;;;;;;;14.55;4.95;;;;;;;;;;4936382;29;20111;-57
2023/09/30 09:30:25;;;;;;;10.95;4.57;;;;;;;;;;4937449;29;20118;-59
2023/09/30 09:32:54;;;;;;;11.23;5.20;;;;;;;;;;4920405;29;20076;-58
2023/09/30 09:35:25;;;;;;;11.57;4.57;;;;;;;;;;4936210;29;20035;-60
2023/09/30 09:38:02;;;;;;;12.15;4.88;;;;;;;;;;4935219;29;20469;-59
2023/09/30 09:40:30;;;;;;;11.40;4.60;;;;;;;;;;4916735;29;20075;-59
2023/09/30 09:42:57;;;;;;;9.25;3.70;;;;;;;;;;4936518;29;20058;-57
2023/09/30 09:45:24;;;;;;;11.32;3.97;;;;;;;;;;4928896;29;20103;-58
2023/09/30 09:47:51;;;;;;;11.45;3.40;;;;;;;;;;4937368;29;20031;-56
2023/09/30 09:50:18;;;;;;;8.13;3.63;;;;;;;;;;4929385;29;20039;-54
2023/09/30 09:52:45;;;;;;;5.35;3.13;;;;;;;;;;4937298;29;20028;-56
2023/09/30 09:55:10;;;;;;;9.68;4.03;;;;;;;;;;4937397;29;20031;-58
2023/09/30 09:57:37;;;;;;;10.13;4.25;;;;;;;;;;4936478;29;20042;-56
2023/09/30 10:00:05;;;;;;;12.68;3.75;;;;;;;;;;4935969;29;20088;-53
2023/09/30 10:02:32;;;;;;;9.15;3.88;;;;;;;;;;4936300;29;20338;-53
2023/09/30 10:04:59;;;;;;;9.05;3.30;;;;;;;;;;4936077;29;20031;-58
2023/09/30 10:07:33;;;;;;;9.20;3.22;;;;;;;;;;4936115;29;20032;-55
2023/09/30 10:10:01;;;;;;;9.00;3.65;;;;;;;;;;4935227;29;20133;-52
2023/09/30 10:12:30;;;;;;;8.32;3.42;;;;;;;;;;4938922;29;20075;-58
2023/09/30 10:14:55;;;;;;;6.32;3.03;;;;;;;;;;4952545;29;20036;-56
2023/09/30 10:18:00;;;;;;;7.07;3.03;;;;;;;;;;4935849;29;20042;-57
2023/09/30 10:20:31;;;;;;;9.90;3.92;;;;;;;;;;4935483;29;20031;-57
2023/09/30 10:23:18;;;;;;;11.80;3.80;;;;;;;;;;4929328;29;20028;-56
2023/09/30 10:25:47;;;;;;;9.18;3.25;;;;;;;;;;4918332;29;20060;-58
2023/09/30 10:28:41;;;;;;;10.68;3.22;;;;;;;;;;4935419;29;20095;-58
2023/09/30 10:31:12;;;;;;;7.18;2.60;;;;;;;;;;4944037;29;20027;-56
2023/09/30 10:34:00;;;;;;;8.00;3.17;;;;;;;;;;4947702;29;20623;-56
2023/09/30 10:36:30;;;;;;;6.32;3.13;;;;;;;;;;4924132;29;20027;-55
2023/09/30 10:38:55;;;;;;;6.90;3.42;;;;;;;;;;4932796;29;20035;-57
2023/09/30 10:41:39;;;;;;;7.50;3.25;;;;;;;;;;4940917;29;20123;-56
2023/09/30 10:44:25;;;;;;;8.57;3.30;;;;;;;;;;4936090;29;20066;-57
2023/09/30 10:46:55;;;;;;;8.18;3.22;;;;;;;;;;4933173;29;20032;-54
2023/09/30 10:49:24;;;;;;;5.82;3.08;;;;;;;;;;4933844;29;20483;-55
2023/09/30 10:51:54;;;;;;;7.75;3.20;;;;;;;;;;4935139;29;20500;-57
2023/09/30 10:54:27;;;;;;;7.85;2.83;;;;;;;;;;4935801;29;20492;-56
2023/09/30 10:56:53;;;;;;;6.82;3.15;;;;;;;;;;4935508;29;20054;-58
2023/09/30 10:59:20;;;;;;;9.00;3.13;;;;;;;;;;4935682;29;20039;-59
2023/09/30 11:01:46;;;;;;;6.90;3.08;;;;;;;;;;4918599;29;20031;-55
2023/09/30 11:04:11;;;;;;;6.95;3.08;;;;;;;;;;4917864;29;20452;-56
2023/09/30 11:06:41;;;;;;;9.25;3.08;;;;;;;;;;4936466;29;20130;-57
2023/09/30 11:09:12;;;;;;;9.52;3.35;;;;;;;;;;4935548;29;20456;-58
2023/09/30 11:11:39;;;;;;;8.00;3.20;;;;;;;;;;4934669;29;20491;-57
2023/09/30 11:14:30;;;;;;;8.13;2.83;;;;;;;;;;4935733;29;20119;-57
2023/09/30 11:16:57;;;;;;;9.23;3.05;;;;;;;;;;4934658;29;20027;-58
2023/09/30 11:19:23;;;;;;;6.53;3.00;;;;;;;;;;4934742;29;20027;-58
2023/09/30 11:21:50;;;;;;;6.90;2.75;;;;;;;;;;4934386;29;20043;-57
2023/09/30 11:24:16;;;;;;;6.43;2.78;;;;;;;;;;4936328;29;20032;-55
2023/09/30 11:26:43;;;;;;;7.45;3.60;;;;;;;;;;4929488;29;20035;-57
2023/09/30 11:29:13;;;;;;;6.95;3.13;;;;;;;;;;4918577;29;20121;-58
2023/09/30 11:31:42;;;;;;;7.70;3.25;;;;;;;;;;4933264;29;20102;-56
2023/09/30 11:34:09;;;;;;;8.25;3.38;;;;;;;;;;4941314;29;20062;-58
2023/09/30 11:36:37;;;;;;;7.97;3.50;;;;;;;;;;4937155;29;20036;-56
2023/09/30 11:39:03;;;;;;;6.93;3.33;;;;;;;;;;4935552;29;20070;-54
2023/09/30 11:41:43;;;;;;;6.40;3.25;;;;;;;;;;4916571;29;20067;-56
2023/09/30 11:44:12;;;;;;;5.60;3.03;;;;;;;;;;4935344;29;20040;-56
2023/09/30 11:46:57;;;;;;;7.57;3.17;;;;;;;;;;4930959;29;20062;-56
2023/09/30 11:49:30;;;;;;;6.38;3.45;;;;;;;;;;4916783;29;20032;-57
2023/09/30 11:51:58;;;;;;;8.88;3.40;;;;;;;;;;4934218;29;20088;-56
2023/09/30 11:54:29;;;;;;;7.40;3.65;;;;;;;;;;4917214;29;20042;-56
2023/09/30 11:56:54;;;;;;;;;;;;;;;;;;4935555;29;20056;-55
2023/09/30 11:59:22;;;;;;;9.82;4.20;;;;;;;;;;4917345;29;19954;-58
2023/09/30 12:01:51;;;;;;;10.38;4.07;;;;;;;;;;4932497;29;20083;-59
2023/09/30 12:04:19;;;;;;;10.93;4.10;;;;;;;;;;4934951;29;20027;-58
2023/09/30 12:06:45;;;;;;;7.40;3.92;;;;;;;;;;4934094;29;20079;-58
2023/09/30 12:09:14;;;;;;;8.10;4.40;;;;;;;;;;4917702;29;20040;-57
2023/09/30 12:11:43;;;;;;;10.38;4.80;;;;;;;;;;4934011;29;20027;-59
2023/09/30 12:14:10;;;;;;;9.93;4.85;;;;;;;;;;4934929;29;20042;-56
2023/09/30 12:16:35;;;;;;;8.48;4.78;;;;;;;;;;4933234;29;20472;-56
2023/09/30 12:19:01;;;;;;;8.88;4.78;;;;;;;;;;4934920;29;20042;-58
2023/09/30 12:21:26;;;;;;;13.23;5.15;;;;;;;;;;4933280;29;20118;-55
2023/09/30 12:23:52;;;;;;;8.13;4.65;;;;;;;;;;4934833;29;20035;-56
2023/09/30 12:26:19;;;;;;;9.02;4.20;;;;;;;;;;4934794;29;20028;-57
2023/09/30 12:28:45;;;;;;;8.70;4.07;;;;;;;;;;4931912;29;20028;-56
2023/09/30 12:31:11;;;;;;;8.00;4.40;;;;;;;;;;4917364;29;20392;-56
2023/09/30 12:33:36;;;;;;;8.63;4.40;;;;;;;;;;4933856;29;20380;-57
2023/09/30 12:36:02;;;;;;;8.40;4.03;;;;;;;;;;4934639;29;20091;-57
2023/09/30 12:38:28;;;;;;;9.07;4.55;;;;;;;;;;4933739;29;20059;-54
2023/09/30 12:40:54;;;;;;;10.43;4.60;;;;;;;;;;4934523;29;20027;-57
2023/09/30 12:43:21;;;;;;;8.10;4.13;;;;;;;;;;4934057;29;20031;-58
2023/09/30 12:45:47;;;;;;;7.43;4.20;;;;;;;;;;4932541;29;20036;-57
2023/09/30 12:48:14;;;;;;;8.10;4.43;;;;;;;;;;4917017;29;20421;-55
2023/09/30 12:50:39;;;;;;;9.32;4.50;;;;;;;;;;4933590;29;20144;-56
2023/09/30 12:53:05;;;;;;;11.98;4.53;;;;;;;;;;4934328;29;20136;-56
2023/09/30 12:55:30;;;;;;;8.50;4.15;;;;;;;;;;4933649;29;20054;-56
2023/09/30 12:57:56;;;;;;;9.30;4.43;;;;;;;;;;4934434;29;20036;-57
2023/09/30 13:00:22;;;;;;;10.25;4.18;;;;;;;;;;4932723;29;20536;-57
2023/09/30 13:02:48;;;;;;;7.55;4.13;;;;;;;;;;4936227;29;20079;-55
2023/09/30 13:05:14;;;;;;;9.98;3.85;;;;;;;;;;4938143;29;20063;-56
2023/09/30 13:07:40;;;;;;;9.10;3.60;;;;;;;;;;4937257;29;20028;-58
2023/09/30 13:10:07;;;;;;;7.18;3.80;;;;;;;;;;4920854;29;20059;-58
2023/09/30 13:12:33;;;;;;;8.65;3.92;;;;;;;;;;4937154;29;20032;-57
2023/09/30 13:14:59;;;;;;;7.72;4.05;;;;;;;;;;4937340;29;20110;-56
2023/09/30 13:17:25;;;;;;;7.65;4.28;;;;;;;;;;4937433;29;20028;-57
2023/09/30 13:19:51;;;;;;;8.43;3.60;;;;;;;;;;4935706;29;20039;-56
2023/09/30 13:22:17;;;;;;;8.23;3.47;;;;;;;;;;4937925;29;20058;-54
2023/09/30 13:24:42;;;;;;;9.32;3.85;;;;;;;;;;4936808;29;20035;-56
2023/09/30 13:27:08;;;;;;;11.38;3.95;;;;;;;;;;4937701;29;20144;-54
2023/09/30 13:29:34;;;;;;;8.05;3.97;;;;;;;;;;4936884;29;20032;-55
2023/09/30 13:31:59;;;;;;;8.40;4.05;;;;;;;;;;4937446;29;20047;-54
2023/09/30 13:34:25;;;;;;;8.15;3.90;;;;;;;;;;4919535;29;20437;-59
2023/09/30 13:36:50;;;;;;;7.50;4.13;;;;;;;;;;4936805;29;20112;-56
2023/09/30 13:39:17;;;;;;;7.50;3.72;;;;;;;;;;4937467;29;20036;-56
2023/09/30 13:41:43;;;;;;;6.60;3.85;;;;;;;;;;4936658;29;20035;-55
2023/09/30 13:44:10;;;;;;;7.68;4.05;;;;;;;;;;4937196;29;20215;-57
2023/09/30 13:46:36;;;;;;;9.05;3.95;;;;;;;;;;4935145;29;20109;-58
2023/09/30 13:49:01;;;;;;;7.10;3.85;;;;;;;;;;4920066;29;20062;-56
2023/09/30 13:51:27;;;;;;;7.32;3.63;;;;;;;;;;4937054;29;20103;-58
2023/09/30 13:53:53;;;;;;;6.57;3.75;;;;;;;;;;4919788;29;20043;-55
2023/09/30 13:56:19;;;;;;;7.45;3.78;;;;;;;;;;4920015;29;20091;-57
2023/09/30 13:58:44;;;;;;;8.10;3.58;;;;;;;;;;4919179;29;20129;-55
2023/09/30 14:01:12;;;;;;;7.57;3.80;;;;;;;;;;4937173;29;20032;-56
2023/09/30 14:03:40;;;;;;;8.48;3.80;;;;;;;;;;4935038;29;20036;-52
2023/09/30 14:06:12;;;;;;;8.32;4.03;;;;;;;;;;4937121;29;20043;-55
2023/09/30 14:08:38;;;;;;;8.27;4.05;;;;;;;;;;4934964;29;20031;-56
2023/09/30 14:11:04;;;;;;;11.32;4.45;;;;;;;;;;4919777;29;20207;-56
2023/09/30 14:13:30;;;;;;;9.18;4.38;;;;;;;;;;4918098;29;20036;-58
2023/09/30 14:15:56;;;;;;;7.18;4.03;;;;;;;;;;4934784;29;20365;-57
2023/09/30 14:18:21;;;;;;;8.43;3.70;;;;;;;;;;4919069;29;20036;-54
2023/09/30 14:20:47;;;;;;;8.77;3.80;;;;;;;;;;4936274;29;20629;-57
2023/09/30 14:23:13;;;;;;;7.55;4.05;;;;;;;;;;4919580;29;20035;-53
2023/09/30 14:25:39;;;;;;;8.15;3.78;;;;;;;;;;4936027;29;20038;-53
2023/09/30 14:28:05;;;;;;;7.65;3.88;;;;;;;;;;4919613;29;20487;-57
2023/09/30 14:30:30;;;;;;;7.03;3.78;;;;;;;;;;4918888;29;20023;-58
2023/09/30 14:32:56;;;;;;;8.70;3.80;;;;;;;;;;4917671;29;20039;-56